Time;durP1;ratioP1;P1;durP2;ratioP2;P2;SDS_P1;SDS_P2;PMS_P1;PMS_P2;Temp;Humidity;BMP_temperature;BMP_pressure;BME280_temperature;BME280_humidity;BME280_pressure;Samples;Min_cycle;Max_cycle;Signal;HPM_P1;HPM_P2
2022/03/11 00:01:33;;;;;;;23.20;11.30;;;;;2.70;96914.00;;;;8333102;28;20225;-72
2022/03/11 00:05:54;;;;;;;26.73;12.20;;;;;2.60;96929.00;;;;8333221;28;20219;-72
2022/03/11 00:10:31;;;;;;;24.97;11.63;;;;;2.40;96923.00;;;;8333540;28;20233;-71
2022/03/11 00:14:35;;;;;;;26.63;11.60;;;;;2.30;96921.00;;;;8332427;28;20275;-71
2022/03/11 00:19:13;;;;;;;21.63;10.50;;;;;2.20;96919.00;;;;8333410;28;20230;-70
2022/03/11 00:23:16;;;;;;;25.93;11.73;;;;;2.10;96912.00;;;;8332745;28;20259;-70
2022/03/11 00:27:19;;;;;;;22.07;10.40;;;;;2.10;96919.00;;;;8332763;28;20209;-70
2022/03/11 00:31:56;;;;;;;28.50;11.80;;;;;1.90;96909.00;;;;8333111;28;20267;-69
2022/03/11 00:36:34;;;;;;;22.10;9.97;;;;;1.80;96911.00;;;;8332332;28;20209;-68
2022/03/11 00:40:37;;;;;;;25.30;10.57;;;;;1.80;96916.00;;;;8332112;28;20230;-69
2022/03/11 00:45:14;;;;;;;20.77;10.67;;;;;1.70;96907.00;;;;8332527;28;20692;-68
2022/03/11 00:49:17;;;;;;;20.47;9.80;;;;;1.60;96906.00;;;;8331815;28;20221;-68
2022/03/11 00:53:55;;;;;;;21.90;9.73;;;;;1.50;96898.00;;;;8330187;28;20771;-68
2022/03/11 00:57:58;;;;;;;24.10;10.33;;;;;1.40;96908.00;;;;8331427;28;20689;-67
2022/03/11 01:02:35;;;;;;;26.73;11.10;;;;;1.30;96897.00;;;;8331797;28;20275;-67
2022/03/11 01:07:09;;;;;;;23.17;10.00;;;;;1.20;96896.00;;;;8330446;28;20708;-67
2022/03/11 01:11:15;;;;;;;22.83;10.80;;;;;1.20;96889.00;;;;8331210;28;20217;-67
2022/03/11 01:15:18;;;;;;;23.73;9.97;;;;;1.10;96884.00;;;;8331525;28;20225;-68
2022/03/11 01:19:21;;;;;;;25.23;11.33;;;;;1.00;96886.00;;;;8330663;28;20294;-66
2022/03/11 01:23:58;;;;;;;21.93;10.13;;;;;1.00;96878.00;;;;8331211;28;20228;-66
2022/03/11 01:28:02;;;;;;;21.20;10.13;;;;;0.90;96876.00;;;;8331307;28;20298;-65
2022/03/11 01:32:36;;;;;;;23.20;10.43;;;;;0.90;96869.00;;;;8330799;28;20217;-67
2022/03/11 01:36:39;;;;;;;23.50;11.17;;;;;0.90;96865.00;;;;8330787;28;20214;-67
2022/03/11 01:41:15;;;;;;;20.60;9.47;;;;;0.80;96859.00;;;;8330524;28;20241;-67
2022/03/11 01:45:20;;;;;;;26.37;10.60;;;;;0.80;96851.00;;;;8329823;28;20262;-68
2022/03/11 01:49:53;;;;;;;24.27;9.73;;;;;0.70;96847.00;;;;8330181;28;20275;-68
2022/03/11 01:53:57;;;;;;;26.33;11.13;;;;;0.70;96852.00;;;;8330103;28;20295;-67
2022/03/11 01:58:34;;;;;;;23.27;10.53;;;;;0.60;96847.00;;;;8329671;28;20221;-68
2022/03/11 02:02:38;;;;;;;19.83;9.50;;;;;0.60;96840.00;;;;8329101;28;20225;-68
2022/03/11 02:07:13;;;;;;;25.60;11.17;;;;;0.60;96837.00;;;;8329586;28;20271;-67
2022/03/11 02:11:49;;;;;;;29.07;12.37;;;;;0.60;96829.00;;;;8358665;28;20213;-68
2022/03/11 02:15:52;;;;;;;25.17;10.37;;;;;0.50;96828.00;;;;8361446;28;20223;-67
2022/03/11 02:20:30;;;;;;;27.97;11.33;;;;;0.50;96835.00;;;;8362351;28;20274;-67
2022/03/11 02:24:34;;;;;;;29.43;13.10;;;;;0.50;96846.00;;;;8361137;28;20229;-68
2022/03/11 02:29:08;;;;;;;29.80;12.27;;;;;0.40;96835.00;;;;8361662;28;20228;-69
2022/03/11 02:33:11;;;;;;;27.97;12.97;;;;;0.40;96827.00;;;;8361849;28;20220;-68
2022/03/11 02:37:14;;;;;;;27.50;12.07;;;;;0.40;96832.00;;;;8361599;28;20307;-69
2022/03/11 02:41:18;;;;;;;32.70;12.10;;;;;0.30;96830.00;;;;8361244;28;20270;-69
2022/03/11 02:45:52;;;;;;;26.83;12.30;;;;;0.20;96828.00;;;;8362047;28;20713;-69
2022/03/11 02:49:55;;;;;;;29.63;12.37;;;;;0.10;96826.00;;;;8361307;28;20216;-68
2022/03/11 02:54:29;;;;;;;26.83;11.83;;;;;0.10;96817.00;;;;8361032;28;20662;-68
2022/03/11 02:58:34;;;;;;;30.13;12.27;;;;;0.00;96815.00;;;;8361611;28;20673;-68
2022/03/11 03:02:37;;;;;;;29.00;12.63;;;;;-0.10;96817.00;;;;8368999;22;20615;-68
2022/03/11 03:06:40;;;;;;;29.57;12.70;;;;;-0.20;96820.00;;;;8319105;28;20256;-69
2022/03/11 03:10:44;;;;;;;30.03;12.57;;;;;-0.30;96810.00;;;;8309062;28;20217;-69
2022/03/11 03:14:49;;;;;;;27.33;11.20;;;;;-0.40;96816.00;;;;8304188;28;20232;-68
2022/03/11 03:18:51;;;;;;;25.17;11.30;;;;;-0.50;96815.00;;;;8312408;28;20236;-68
2022/03/11 03:22:54;;;;;;;26.00;10.83;;;;;-0.50;96820.00;;;;8327439;28;20225;-68
2022/03/11 03:26:57;;;;;;;25.67;9.90;;;;;-0.50;96828.00;;;;8321148;28;20571;-69
2022/03/11 03:31:02;;;;;;;26.70;11.03;;;;;-0.60;96821.00;;;;8323991;28;20227;-69
2022/03/11 03:35:05;;;;;;;25.53;10.23;;;;;-0.70;96807.00;;;;8312779;28;20253;-67
2022/03/11 03:39:08;;;;;;;20.77;9.47;;;;;-0.70;96805.00;;;;8313816;28;20286;-67
2022/03/11 03:43:11;;;;;;;24.43;9.43;;;;;-0.70;96801.00;;;;8302845;28;20228;-67
2022/03/11 03:47:15;;;;;;;23.27;9.33;;;;;-0.70;96796.00;;;;8318394;28;20713;-67
2022/03/11 03:51:18;;;;;;;20.83;8.83;;;;;-0.80;96784.00;;;;8312632;28;20682;-69
2022/03/11 03:55:21;;;;;;;19.87;9.10;;;;;-0.90;96777.00;;;;8313535;28;20246;-69
2022/03/11 03:59:24;;;;;;;20.13;8.73;;;;;-0.90;96788.00;;;;8316011;28;20795;-69
2022/03/11 04:03:29;;;;;;;19.43;8.10;;;;;-1.00;96772.00;;;;8305541;28;20240;-72
2022/03/11 04:07:32;;;;;;;21.03;8.37;;;;;-1.10;96782.00;;;;8300478;28;20237;-71
2022/03/11 04:11:36;;;;;;;18.23;8.30;;;;;-1.10;96780.00;;;;8294292;28;20279;-71
2022/03/11 04:15:39;;;;;;;19.10;8.40;;;;;-1.10;96777.00;;;;8305377;28;20263;-71
2022/03/11 04:19:43;;;;;;;17.10;8.03;;;;;-1.10;96770.00;;;;8299863;28;20239;-72
2022/03/11 04:23:48;;;;;;;15.07;7.47;;;;;-1.30;96773.00;;;;8303936;28;20300;-70
2022/03/11 04:27:51;;;;;;;19.70;7.70;;;;;-1.30;96775.00;;;;8309571;28;20229;-70
2022/03/11 04:31:55;;;;;;;15.27;8.03;;;;;-1.30;96772.00;;;;8312815;28;20232;-72
2022/03/11 04:35:59;;;;;;;16.57;7.60;;;;;-1.30;96773.00;;;;8304893;28;20739;-71
2022/03/11 04:40:02;;;;;;;16.40;7.37;;;;;-1.40;96754.00;;;;8314184;28;20213;-72
2022/03/11 04:44:05;;;;;;;16.30;6.93;;;;;-1.50;96760.00;;;;8311576;28;20225;-72
2022/03/11 04:48:08;;;;;;;18.67;6.97;;;;;-1.50;96763.00;;;;8309517;28;20913;-71
2022/03/11 04:52:13;;;;;;;14.47;6.53;;;;;-1.50;96759.00;;;;8302415;28;20229;-72
2022/03/11 04:56:16;;;;;;;23.30;7.73;;;;;-1.60;96750.00;;;;8309482;28;20272;-71
2022/03/11 05:00:19;;;;;;;16.83;7.50;;;;;-1.60;96740.00;;;;8305612;28;20229;-72
2022/03/11 05:04:22;;;;;;;16.47;7.47;;;;;-1.60;96750.00;;;;8305516;28;20308;-73
2022/03/11 05:08:26;;;;;;;17.87;7.73;;;;;-1.60;96750.00;;;;8303021;28;20302;-74
2022/03/11 05:12:29;;;;;;;16.10;5.97;;;;;-1.60;96736.00;;;;8305467;28;20234;-74
2022/03/11 05:16:32;;;;;;;13.27;6.67;;;;;-1.50;96753.00;;;;8313003;28;20233;-75
2022/03/11 05:20:35;;;;;;;18.50;7.50;;;;;-1.50;96753.00;;;;8306684;28;20233;-75
2022/03/11 05:24:40;;;;;;;15.83;6.60;;;;;-1.60;96750.00;;;;8311790;28;20225;-74
2022/03/11 05:28:43;;;;;;;11.27;5.33;;;;;-1.60;96751.00;;;;8294530;28;20237;-75
2022/03/11 05:32:48;;;;;;;13.53;6.73;;;;;-1.60;96754.00;;;;8286793;28;20244;-73
2022/03/11 05:36:51;;;;;;;14.77;6.40;;;;;-1.60;96749.00;;;;8301748;28;20233;-76
2022/03/11 05:40:56;;;;;;;17.83;5.83;;;;;-1.60;96755.00;;;;8295986;28;20264;-73
2022/03/11 05:44:59;;;;;;;18.13;5.93;;;;;-1.50;96758.00;;;;8295150;28;20225;-78
2022/03/11 05:49:02;;;;;;;12.53;5.80;;;;;-1.50;96761.00;;;;8300130;28;20280;-75
2022/03/11 05:53:04;;;;;;;14.70;5.33;;;;;-1.50;96762.00;;;;8298695;28;20229;-75
2022/03/11 05:57:09;;;;;;;11.70;5.37;;;;;-1.50;96767.00;;;;8302418;28;20217;-76
2022/03/11 06:01:12;;;;;;;22.27;6.97;;;;;-1.50;96766.00;;;;8288081;28;20278;-75
2022/03/11 06:05:16;;;;;;;11.73;4.97;;;;;-1.40;96758.00;;;;8303477;28;20217;-76
2022/03/11 06:09:19;;;;;;;17.40;5.80;;;;;-1.40;96760.00;;;;8298863;28;20327;-76
2022/03/11 06:13:23;;;;;;;12.33;5.37;;;;;-1.30;96761.00;;;;8299915;28;20286;-79
2022/03/11 06:17:26;;;;;;;15.43;7.23;;;;;-1.30;96760.00;;;;8297054;28;20289;-78
2022/03/11 06:21:30;;;;;;;23.23;5.53;;;;;-1.20;96765.00;;;;8305829;28;20267;-77
2022/03/11 06:25:33;;;;;;;9.93;5.03;;;;;-1.10;96772.00;;;;8299682;28;20221;-76
2022/03/11 06:29:37;;;;;;;9.00;5.00;;;;;-1.00;96772.00;;;;8293606;28;20233;-77
2022/03/11 06:33:40;;;;;;;9.47;4.40;;;;;-0.80;96779.00;;;;8300302;28;20217;-76
2022/03/11 06:37:45;;;;;;;12.40;5.43;;;;;-0.70;96777.00;;;;8289735;28;20267;-77
2022/03/11 06:41:48;;;;;;;15.73;5.87;;;;;-0.60;96772.00;;;;8298725;28;20233;-77
2022/03/11 06:45:52;;;;;;;10.77;4.97;;;;;-0.50;96785.00;;;;8289780;28;21579;-75
2022/03/11 06:49:56;;;;;;;15.07;6.40;;;;;-0.40;96787.00;;;;8304165;28;20298;-76
2022/03/11 06:53:59;;;;;;;12.67;5.30;;;;;-0.30;96781.00;;;;8298709;28;20910;-78
2022/03/11 06:58:02;;;;;;;11.27;5.10;;;;;-0.20;96793.00;;;;8299181;28;20662;-78
2022/03/11 07:02:06;;;;;;;14.57;5.97;;;;;-0.20;96803.00;;;;8298425;28;20245;-83
2022/03/11 07:06:10;;;;;;;15.33;5.73;;;;;-0.10;96799.00;;;;8299548;28;20292;-79
2022/03/11 07:10:16;;;;;;;11.43;5.17;;;;;0.00;96815.00;;;;8300428;28;20398;-77
2022/03/11 07:14:23;;;;;;;11.23;5.00;;;;;0.00;96810.00;;;;8301985;28;20526;-79
2022/03/11 07:18:28;;;;;;;14.93;5.80;;;;;0.10;96819.00;;;;8297967;28;20274;-74
2022/03/11 07:22:31;;;;;;;12.17;6.30;;;;;0.20;96810.00;;;;8296353;28;20233;-76
2022/03/11 07:26:35;;;;;;;13.47;5.60;;;;;0.30;96818.00;;;;8293729;28;20288;-79
2022/03/11 07:30:38;;;;;;;13.57;6.17;;;;;0.40;96816.00;;;;8297405;28;20232;-81
2022/03/11 07:34:42;;;;;;;11.07;5.60;;;;;0.50;96820.00;;;;8304590;28;20221;-80
2022/03/11 07:38:45;;;;;;;11.37;5.50;;;;;0.70;96826.00;;;;8314022;28;20242;-80
2022/03/11 07:42:48;;;;;;;13.43;6.03;;;;;0.80;96821.00;;;;8325167;28;20236;-77
2022/03/11 07:46:51;;;;;;;12.47;5.93;;;;;1.00;96824.00;;;;8333395;28;20224;-79
2022/03/11 07:50:55;;;;;;;13.63;6.53;;;;;1.20;96826.00;;;;8327617;28;20229;-76
2022/03/11 07:54:58;;;;;;;10.57;5.87;;;;;1.40;96821.00;;;;8328328;28;20330;-81
2022/03/11 07:59:02;;;;;;;17.40;6.37;;;;;1.50;96816.00;;;;8327474;28;20220;-76
2022/03/11 08:03:05;;;;;;;10.63;5.67;;;;;1.70;96815.00;;;;8331288;28;20225;-73
2022/03/11 08:07:11;;;;;;;12.83;6.70;;;;;1.90;96813.00;;;;8332095;28;20220;-69
2022/03/11 08:11:15;;;;;;;11.47;5.93;;;;;2.00;96817.00;;;;8332211;28;20276;-69
2022/03/11 08:15:18;;;;;;;10.20;5.30;;;;;2.10;96819.00;;;;8327855;28;20219;-70
2022/03/11 08:19:21;;;;;;;13.43;6.30;;;;;2.30;96814.00;;;;8321960;28;20686;-70
2022/03/11 08:23:26;;;;;;;10.00;5.67;;;;;2.40;96807.00;;;;8328167;28;20232;-69
2022/03/11 08:27:29;;;;;;;11.97;5.67;;;;;2.60;96807.00;;;;8330679;28;20343;-69
2022/03/11 08:31:33;;;;;;;11.97;5.80;;;;;2.80;96808.00;;;;8326751;28;20230;-68
2022/03/11 08:35:38;;;;;;;12.63;6.17;;;;;3.00;96809.00;;;;8334087;28;20221;-69
2022/03/11 08:40:02;;;;;;;16.40;6.20;;;;;3.10;96825.00;;;;8327796;28;20624;-70
2022/03/11 08:44:06;;;;;;;17.20;6.17;;;;;3.30;96821.00;;;;8327447;28;20237;-70
2022/03/11 08:48:09;;;;;;;10.40;5.43;;;;;3.60;96818.00;;;;8330253;28;20616;-71
2022/03/11 08:52:14;;;;;;;11.40;5.60;;;;;3.60;96819.00;;;;8329165;28;20232;-69
2022/03/11 08:56:21;;;;;;;10.73;5.90;;;;;3.90;96811.00;;;;8336840;28;20210;-70
2022/03/11 09:00:26;;;;;;;12.57;5.60;;;;;4.10;96807.00;;;;8333103;28;20221;-72
2022/03/11 09:04:30;;;;;;;10.30;5.67;;;;;4.30;96808.00;;;;8332015;28;20264;-71
2022/03/11 09:08:33;;;;;;;8.63;5.33;;;;;4.60;96809.00;;;;8329298;28;20356;-69
2022/03/11 09:12:41;;;;;;;15.40;5.83;;;;;4.70;96803.00;;;;8330620;28;21053;-69
2022/03/11 09:16:44;;;;;;;8.13;5.43;;;;;4.90;96800.00;;;;8332530;28;20390;-69
2022/03/11 09:20:48;;;;;;;10.47;6.17;;;;;5.20;96804.00;;;;8334383;28;20311;-69
2022/03/11 09:24:51;;;;;;;10.73;6.07;;;;;5.40;96791.00;;;;8324778;28;20306;-68
2022/03/11 09:28:56;;;;;;;12.20;5.13;;;;;5.70;96802.00;;;;8329409;28;20269;-69
2022/03/11 09:32:59;;;;;;;8.93;5.40;;;;;6.00;96805.00;;;;8327575;28;20217;-68
2022/03/11 09:37:02;;;;;;;9.27;5.47;;;;;6.60;96803.00;;;;8329224;28;20234;-68
2022/03/11 09:41:09;;;;;;;11.07;5.23;;;;;7.10;96788.00;;;;8325849;28;20285;-68
2022/03/11 09:45:14;;;;;;;13.40;5.93;;;;;7.50;96793.00;;;;8330409;28;20223;-68
2022/03/11 09:49:18;;;;;;;9.47;5.00;;;;;7.90;96789.00;;;;8327753;28;20240;-68
2022/03/11 09:53:21;;;;;;;8.70;4.87;;;;;8.10;96786.00;;;;8327752;28;20223;-69
2022/03/11 09:57:26;;;;;;;15.77;5.97;;;;;8.10;96794.00;;;;8330042;28;20232;-69
2022/03/11 10:01:30;;;;;;;7.07;4.97;;;;;8.30;96784.00;;;;8329143;28;20237;-69
2022/03/11 10:05:47;;;;;;;9.83;5.63;;;;;8.70;96777.00;;;;8330349;28;21052;-69
2022/03/11 10:09:51;;;;;;;10.90;5.40;;;;;9.00;96784.00;;;;8329081;28;20220;-69
2022/03/11 10:13:55;;;;;;;11.60;4.87;;;;;9.60;96785.00;;;;8333574;28;20230;-69
2022/03/11 10:18:02;;;;;;;10.23;4.87;;;;;10.20;96778.00;;;;8335895;28;20689;-70
2022/03/11 10:22:05;;;;;;;13.37;4.60;;;;;10.50;96774.00;;;;8334083;28;20250;-70
2022/03/11 10:26:08;;;;;;;9.20;5.03;;;;;10.90;96780.00;;;;8335813;28;20236;-70
2022/03/11 10:30:16;;;;;;;7.67;4.53;;;;;11.10;96785.00;;;;8340348;28;20361;-70
2022/03/11 10:34:23;;;;;;;8.23;5.20;;;;;11.30;96780.00;;;;8330752;28;20239;-69
2022/03/11 10:38:27;;;;;;;11.60;5.20;;;;;11.10;96783.00;;;;8340089;28;20228;-69
2022/03/11 10:42:30;;;;;;;7.37;4.47;;;;;10.60;96776.00;;;;8343073;28;20289;-69
2022/03/11 10:46:33;;;;;;;10.43;6.20;;;;;10.00;96773.00;;;;8332511;28;20229;-69
2022/03/11 10:50:37;;;;;;;8.77;5.00;;;;;9.80;96773.00;;;;8336394;28;21058;-71
2022/03/11 10:54:42;;;;;;;9.07;4.67;;;;;10.00;96764.00;;;;8330004;28;20319;-69
2022/03/11 10:58:45;;;;;;;7.13;4.13;;;;;9.90;96763.00;;;;8327052;28;20228;-68
2022/03/11 11:02:50;;;;;;;12.47;5.10;;;;;9.80;96757.00;;;;8325257;28;20232;-68
2022/03/11 11:06:56;;;;;;;10.03;4.80;;;;;9.60;96770.00;;;;8333195;28;20257;-68
2022/03/11 11:11:01;;;;;;;8.33;4.23;;;;;9.50;96760.00;;;;8321230;28;20567;-68
2022/03/11 11:15:06;;;;;;;8.90;4.93;;;;;9.60;96760.00;;;;8335168;28;20232;-69
2022/03/11 11:19:11;;;;;;;8.30;5.10;;;;;9.60;96757.00;;;;8341497;28;20282;-69
2022/03/11 11:23:16;;;;;;;10.50;4.63;;;;;9.70;96749.00;;;;8333520;28;20629;-70
2022/03/11 11:27:21;;;;;;;9.77;4.57;;;;;9.90;96743.00;;;;8324969;28;20229;-70
2022/03/11 11:31:24;;;;;;;8.63;4.57;;;;;10.00;96745.00;;;;8330751;28;20228;-71
2022/03/11 11:35:30;;;;;;;6.43;3.97;;;;;10.30;96729.00;;;;8340944;28;20236;-70
2022/03/11 11:39:39;;;;;;;5.77;4.10;;;;;10.40;96718.00;;;;8346262;28;20724;-71
2022/03/11 11:43:53;;;;;;;4.63;3.83;;;;;10.60;96712.00;;;;8334959;28;20239;-72
2022/03/11 11:47:56;;;;;;;6.70;3.97;;;;;10.50;96711.00;;;;8339973;28;20247;-72
2022/03/11 11:52:00;;;;;;;8.07;4.10;;;;;10.60;96703.00;;;;8338099;28;20212;-71
2022/03/11 11:56:27;;;;;;;7.50;4.43;;;;;10.80;96689.00;;;;8335129;28;20268;-70
2022/03/11 12:00:35;;;;;;;6.45;4.03;;;;;10.90;96693.00;;;;8337318;28;20279;-71
2022/03/11 12:04:41;;;;;;;8.02;4.25;;;;;10.80;96688.00;;;;8338560;28;20237;-71
2022/03/11 12:08:49;;;;;;;8.70;4.33;;;;;10.60;96685.00;;;;8339724;28;20223;-71
2022/03/11 12:13:04;;;;;;;6.60;4.17;;;;;10.60;96679.00;;;;8346922;28;20222;-71
2022/03/11 12:17:09;;;;;;;6.95;4.00;;;;;10.40;96680.00;;;;8332972;28;20315;-69
2022/03/11 12:21:27;;;;;;;8.30;3.97;;;;;10.40;96679.00;;;;8337028;28;20702;-70
2022/03/11 12:25:33;;;;;;;11.95;4.30;;;;;10.40;96665.00;;;;8337686;28;20233;-70
2022/03/11 12:29:38;;;;;;;10.87;4.50;;;;;10.50;96655.00;;;;8344475;28;20221;-70
2022/03/11 12:33:43;;;;;;;8.77;4.47;;;;;10.50;96643.00;;;;8330186;28;20950;-70
2022/03/11 12:37:46;;;;;;;8.57;4.50;;;;;10.50;96639.00;;;;8335276;28;20278;-71
2022/03/11 12:41:49;;;;;;;8.63;5.00;;;;;10.40;96636.00;;;;8335057;28;20233;-72
2022/03/11 12:45:55;;;;;;;7.53;4.50;;;;;10.50;96630.00;;;;8335280;28;20274;-70
2022/03/11 12:50:03;;;;;;;4.83;3.90;;;;;10.80;96632.00;;;;8336222;28;20233;-72
2022/03/11 12:54:16;;;;;;;8.23;3.80;;;;;11.10;96624.00;;;;8340350;28;20366;-72
2022/03/11 12:58:25;;;;;;;8.48;4.60;;;;;11.30;96627.00;;;;8338768;28;20237;-72
2022/03/11 13:02:32;;;;;;;6.45;3.90;;;;;11.10;96619.00;;;;8330906;28;20271;-72
2022/03/11 13:06:35;;;;;;;9.73;5.38;;;;;11.20;96623.00;;;;8334712;28;20235;-73
2022/03/11 13:10:38;;;;;;;7.70;4.57;;;;;11.20;96618.00;;;;8338106;28;20249;-72
2022/03/11 13:14:41;;;;;;;5.47;4.55;;;;;11.10;96604.00;;;;8332995;28;20264;-73
2022/03/11 13:18:46;;;;;;;8.47;4.57;;;;;11.20;96607.00;;;;8331001;28;20220;-73
2022/03/11 13:22:50;;;;;;;6.15;4.32;;;;;11.20;96600.00;;;;8331645;28;20229;-75
2022/03/11 13:27:05;;;;;;;8.98;5.20;;;;;11.40;96593.00;;;;8337557;28;20960;-73
2022/03/11 13:31:13;;;;;;;7.28;4.05;;;;;11.50;96598.00;;;;8332909;28;20259;-73
2022/03/11 13:35:29;;;;;;;9.30;4.97;;;;;11.50;96600.00;;;;8337928;28;20241;-73
2022/03/11 13:39:32;;;;;;;15.30;4.93;;;;;11.50;96596.00;;;;8322815;28;20241;-73
2022/03/11 13:43:35;;;;;;;9.07;4.68;;;;;11.60;96595.00;;;;8336902;28;20237;-73
2022/03/11 13:47:38;;;;;;;6.15;4.68;;;;;11.60;96591.00;;;;8338790;28;20255;-77
2022/03/11 13:51:51;;;;;;;11.02;5.20;;;;;11.60;96575.00;;;;8332847;28;20244;-75
2022/03/11 13:55:54;;;;;;;13.18;4.72;;;;;11.80;96570.00;;;;8334216;28;20258;-78
2022/03/11 13:59:59;;;;;;;9.88;5.38;;;;;11.90;96568.00;;;;8332081;28;20235;-75
2022/03/11 14:04:17;;;;;;;9.70;5.50;;;;;11.90;96583.00;;;;8329753;28;20240;-75
2022/03/11 14:08:27;;;;;;;15.50;6.47;;;;;11.90;96574.00;;;;8335950;28;20229;-74
2022/03/11 14:12:33;;;;;;;12.43;6.20;;;;;11.80;96569.00;;;;8339959;28;20244;-74
2022/03/11 14:16:36;;;;;;;9.75;6.38;;;;;11.80;96575.00;;;;8338527;28;20221;-73
2022/03/11 14:20:39;;;;;;;11.25;4.95;;;;;12.00;96573.00;;;;8339958;28;20769;-73
2022/03/11 14:24:44;;;;;;;10.50;5.85;;;;;12.20;96575.00;;;;8341556;28;20232;-74
2022/03/11 14:28:47;;;;;;;15.45;6.60;;;;;12.10;96564.00;;;;8353568;28;20215;-73
2022/03/11 14:32:50;;;;;;;11.30;6.38;;;;;12.00;96576.00;;;;8343484;28;20950;-73
2022/03/11 14:36:53;;;;;;;10.27;6.00;;;;;12.00;96570.00;;;;8339761;28;20227;-73
2022/03/11 14:40:57;;;;;;;10.75;6.40;;;;;12.00;96553.00;;;;8343524;28;20243;-73
2022/03/11 14:45:00;;;;;;;11.93;5.68;;;;;12.10;96551.00;;;;8333441;28;21686;-73
2022/03/11 14:49:08;;;;;;;11.18;6.85;;;;;12.20;96555.00;;;;8326733;28;20878;-73
2022/03/11 14:53:11;;;;;;;10.63;6.07;;;;;12.20;96560.00;;;;8333023;28;20229;-73
2022/03/11 14:57:16;;;;;;;12.60;6.10;;;;;12.00;96551.00;;;;8329632;28;20219;-71
2022/03/11 15:01:19;;;;;;;11.90;5.97;;;;;12.10;96551.00;;;;8329699;28;20243;-78
2022/03/11 15:05:23;;;;;;;10.80;5.88;;;;;12.20;96545.00;;;;8334673;28;20888;-77
2022/03/11 15:09:26;;;;;;;6.60;4.90;;;;;12.30;96539.00;;;;8343621;28;20224;-76
2022/03/11 15:13:31;;;;;;;8.63;5.60;;;;;12.20;96536.00;;;;8332628;28;20235;-76
2022/03/11 15:17:34;;;;;;;9.50;5.65;;;;;12.20;96541.00;;;;8329946;28;20309;-82
2022/03/11 15:21:39;;;;;;;11.60;6.25;;;;;12.20;96546.00;;;;8334106;28;20311;-81
2022/03/11 15:25:46;;;;;;;12.02;5.65;;;;;12.20;96543.00;;;;8330430;28;20258;-82
2022/03/11 15:29:50;;;;;;;10.02;5.70;;;;;12.10;96543.00;;;;8329956;28;20223;-81
2022/03/11 15:33:53;;;;;;;10.73;5.28;;;;;12.00;96537.00;;;;8335905;28;20227;-82
2022/03/11 15:37:57;;;;;;;12.75;6.88;;;;;11.80;96537.00;;;;8335858;28;20231;-80
2022/03/11 15:42:00;;;;;;;8.70;4.82;;;;;11.70;96532.00;;;;8331995;28;20321;-82
2022/03/11 15:46:05;;;;;;;14.75;5.95;;;;;11.70;96534.00;;;;8333229;28;20287;-78
2022/03/11 15:50:08;;;;;;;13.55;5.43;;;;;11.60;96530.00;;;;8336687;28;20660;-79
2022/03/11 15:54:11;;;;;;;9.55;5.88;;;;;11.60;96528.00;;;;8334997;28;20282;-79
2022/03/11 15:58:15;;;;;;;7.15;5.18;;;;;11.60;96526.00;;;;8332649;28;20567;-79
2022/03/11 16:02:19;;;;;;;6.53;4.57;;;;;11.60;96528.00;;;;8330465;28;20246;-77
2022/03/11 16:06:23;;;;;;;7.30;4.85;;;;;11.40;96531.00;;;;8326410;28;20229;-78
2022/03/11 16:10:28;;;;;;;9.18;5.22;;;;;11.20;96537.00;;;;8329475;28;20566;-80
2022/03/11 16:14:31;;;;;;;14.38;5.72;;;;;11.00;96522.00;;;;8328256;28;20226;-78
2022/03/11 16:18:41;;;;;;;15.20;5.70;;;;;10.70;96527.00;;;;8332300;28;20220;-76
2022/03/11 16:22:45;;;;;;;11.93;4.85;;;;;10.50;96533.00;;;;8334008;28;20225;-81
2022/03/11 16:26:48;;;;;;;7.30;4.72;;;;;10.30;96539.00;;;;8338630;28;20224;-81
2022/03/11 16:30:51;;;;;;;7.55;5.10;;;;;10.20;96547.00;;;;8342453;28;20258;-79
2022/03/11 16:35:14;;;;;;;8.82;4.82;;;;;9.90;96537.00;;;;8338348;28;20226;-78
2022/03/11 16:39:16;;;;;;;7.18;4.97;;;;;9.70;96545.00;;;;8339120;28;20224;-79
2022/03/11 16:43:19;;;;;;;8.60;5.03;;;;;9.50;96549.00;;;;8329794;28;20688;-77
2022/03/11 16:47:22;;;;;;;10.77;4.88;;;;;9.30;96550.00;;;;8336982;28;20234;-77
2022/03/11 16:51:28;;;;;;;11.83;5.03;;;;;9.10;96545.00;;;;8335443;28;20573;-77
2022/03/11 16:55:31;;;;;;;11.13;5.27;;;;;8.90;96550.00;;;;8331150;28;20695;-79
2022/03/11 16:59:34;;;;;;;11.27;6.10;;;;;8.70;96555.00;;;;8342629;28;20542;-78
2022/03/11 17:03:37;;;;;;;11.70;5.10;;;;;8.40;96559.00;;;;8336807;28;20233;-78
2022/03/11 17:07:43;;;;;;;9.83;5.63;;;;;8.20;96557.00;;;;8338263;28;20705;-78
2022/03/11 17:11:47;;;;;;;11.27;6.10;;;;;7.90;96554.00;;;;8336660;28;20655;-77
2022/03/11 17:15:50;;;;;;;8.30;5.07;;;;;7.70;96552.00;;;;8334242;28;20338;-78
2022/03/11 17:19:54;;;;;;;9.00;4.97;;;;;7.50;96551.00;;;;8333102;28;20217;-78
2022/03/11 17:24:00;;;;;;;7.90;4.87;;;;;7.30;96559.00;;;;8335026;28;20240;-77
2022/03/11 17:28:05;;;;;;;10.17;5.30;;;;;7.10;96554.00;;;;8339458;28;20228;-77
2022/03/11 17:32:08;;;;;;;9.47;5.60;;;;;6.90;96560.00;;;;8344068;28;20342;-76
2022/03/11 17:36:13;;;;;;;16.27;5.57;;;;;6.70;96559.00;;;;8342612;28;20254;-76
2022/03/11 17:40:18;;;;;;;10.13;5.50;;;;;6.60;96562.00;;;;8336425;28;20238;-76
2022/03/11 17:44:21;;;;;;;23.93;9.37;;;;;6.40;96558.00;;;;8331739;28;20808;-76
2022/03/11 17:48:24;;;;;;;12.33;5.30;;;;;6.20;96556.00;;;;8334535;28;20232;-78
2022/03/11 17:52:27;;;;;;;12.03;5.97;;;;;6.00;96561.00;;;;8328791;28;20703;-77
2022/03/11 17:56:32;;;;;;;12.00;5.83;;;;;5.90;96564.00;;;;8334822;28;20243;-75
2022/03/11 18:00:35;;;;;;;12.07;5.53;;;;;5.80;96560.00;;;;8336562;28;20258;-77
2022/03/11 18:04:38;;;;;;;17.40;5.77;;;;;5.60;96579.00;;;;8339131;28;20266;-77
2022/03/11 18:08:42;;;;;;;6.97;4.37;;;;;5.50;96567.00;;;;8340072;28;20258;-76
2022/03/11 18:12:46;;;;;;;8.43;4.63;;;;;5.40;96575.00;;;;8334667;28;20230;-74
2022/03/11 18:16:49;;;;;;;8.97;5.00;;;;;5.30;96569.00;;;;8342381;28;20286;-78
2022/03/11 18:20:52;;;;;;;6.40;4.33;;;;;5.20;96568.00;;;;8336368;28;20293;-78
2022/03/11 18:24:55;;;;;;;9.43;5.03;;;;;5.20;96569.00;;;;8334907;28;20230;-79
2022/03/11 18:29:00;;;;;;;11.67;5.27;;;;;5.10;96571.00;;;;8336870;28;20782;-79
2022/03/11 18:33:05;;;;;;;14.53;5.23;;;;;4.90;96575.00;;;;8334249;28;20227;-78
2022/03/11 18:37:08;;;;;;;10.23;5.63;;;;;4.80;96580.00;;;;8337181;28;20616;-78
2022/03/11 18:41:10;;;;;;;12.17;4.80;;;;;4.70;96587.00;;;;8338352;28;20880;-77
2022/03/11 18:45:15;;;;;;;8.90;4.60;;;;;4.60;96587.00;;;;8336153;28;20328;-76
2022/03/11 18:49:18;;;;;;;17.33;5.00;;;;;4.50;96588.00;;;;8342888;28;20223;-77
2022/03/11 18:53:22;;;;;;;13.10;4.60;;;;;4.40;96592.00;;;;8336588;28;20242;-77
2022/03/11 18:57:25;;;;;;;8.00;4.83;;;;;4.20;96575.00;;;;8336130;28;20236;-77
2022/03/11 19:01:36;;;;;;;6.87;4.67;;;;;4.10;96580.00;;;;8338658;28;20236;-79
2022/03/11 19:05:39;;;;;;;7.63;4.17;;;;;4.10;96587.00;;;;8336566;28;20544;-79
2022/03/11 19:09:42;;;;;;;10.13;5.07;;;;;4.10;96592.00;;;;8335914;28;20633;-78
2022/03/11 19:13:46;;;;;;;8.83;4.40;;;;;4.10;96604.00;;;;8335686;28;20707;-80
2022/03/11 19:17:50;;;;;;;8.77;4.23;;;;;4.10;96600.00;;;;8333301;28;20283;-83
2022/03/11 19:21:54;;;;;;;11.10;4.17;;;;;4.20;96607.00;;;;8338849;28;20228;-79
2022/03/11 19:25:56;;;;;;;6.77;4.00;;;;;4.30;96608.00;;;;8332028;28;20233;-79
2022/03/11 19:30:00;;;;;;;6.30;3.60;;;;;4.30;96605.00;;;;8340845;28;20682;-79
2022/03/11 19:34:07;;;;;;;6.30;3.37;;;;;4.50;96598.00;;;;8336108;28;20309;-80
2022/03/11 19:38:11;;;;;;;5.67;3.50;;;;;4.60;96604.00;;;;8335345;28;20843;-79
2022/03/11 19:42:15;;;;;;;8.53;3.50;;;;;4.60;96592.00;;;;8334343;28;20223;-80
2022/03/11 19:46:18;;;;;;;6.17;3.40;;;;;4.70;96590.00;;;;8340665;28;20782;-80
2022/03/11 19:55:37;;;;;;;5.60;3.77;;;;;4.80;96607.00;;;;8366033;28;20270;-79
2022/03/11 20:00:11;;;;;;;5.97;3.43;;;;;4.90;96610.00;;;;8362669;28;20220;-80
2022/03/11 20:09:12;;;;;;;5.70;3.53;;;;;5.00;96619.00;;;;8367308;28;20243;-79
2022/03/11 20:13:52;;;;;;;6.47;3.27;;;;;4.90;96612.00;;;;8367385;28;20649;-79
2022/03/11 20:18:25;;;;;;;5.13;3.13;;;;;4.90;96614.00;;;;8366834;28;20304;-74
2022/03/11 20:23:01;;;;;;;5.10;2.87;;;;;4.80;96614.00;;;;8366999;28;20558;-77
2022/03/11 20:27:33;;;;;;;5.33;3.33;;;;;4.80;96613.00;;;;8363906;28;20224;-77
2022/03/11 20:32:10;;;;;;;212.40;65.10;;;;;4.80;96610.00;;;;8366059;28;20268;-80
2022/03/11 20:36:15;;;;;;;482.80;121.53;;;;;4.80;96617.00;;;;8365558;28;20224;-78
2022/03/11 20:40:19;;;;;;;429.93;102.27;;;;;4.80;96613.00;;;;8366820;28;20603;-78